Mreta, Georgia
Current Conditions -  °F | °C
As of 10:15 AM on Thursday 23 Oct 2014 (Local Time) from KRYY Reporting Station
Haze Haze  
Wind Chill: 39°   Ceiling: Unl
Heat Index: 43°   Visibility: 5mi
Dew Point: 39°   Wind: 6mph
Humidity: 87%   Direction: 270°W
Pressure: 30.17"   Gusts: NA
Location:  34.0465°N, 84.443°W
Report Text: KRYY 231415Z 27005KT 5SM BR SCT004 06/04 A3017
Loading
Personal Weather Stations






























Interactive Weather Map
Tropical Storm Tracking
New forecast layout! Learn more

10-Day Weather Forecast

Advertisements
Track Severe Weather on mobile